sensor_id;sensor_type;location;lat;lon;timestamp;P1;durP1;ratioP1;P2;durP2;ratioP2
12896;SDS011;6516;35.028;32.372;2024-03-08T00:01:57;8.25;;;5.20;;
12896;SDS011;6516;35.028;32.372;2024-03-08T00:04:25;9.80;;;4.63;;
12896;SDS011;6516;35.028;32.372;2024-03-08T00:06:52;8.73;;;4.85;;
12896;SDS011;6516;35.028;32.372;2024-03-08T00:09:20;9.65;;;4.70;;
12896;SDS011;6516;35.028;32.372;2024-03-08T00:11:50;9.93;;;4.63;;
12896;SDS011;6516;35.028;32.372;2024-03-08T00:14:17;12.07;;;4.80;;
12896;SDS011;6516;35.028;32.372;2024-03-08T00:16:45;8.27;;;4.50;;
12896;SDS011;6516;35.028;32.372;2024-03-08T00:19:13;9.35;;;4.93;;
12896;SDS011;6516;35.028;32.372;2024-03-08T00:21:41;8.05;;;4.78;;
12896;SDS011;6516;35.028;32.372;2024-03-08T00:24:09;10.25;;;5.38;;
12896;SDS011;6516;35.028;32.372;2024-03-08T00:26:37;9.88;;;4.95;;
12896;SDS011;6516;35.028;32.372;2024-03-08T00:29:06;8.83;;;4.70;;
12896;SDS011;6516;35.028;32.372;2024-03-08T00:31:34;9.00;;;4.40;;
12896;SDS011;6516;35.028;32.372;2024-03-08T00:34:02;8.88;;;4.60;;
12896;SDS011;6516;35.028;32.372;2024-03-08T00:36:30;9.18;;;4.80;;
12896;SDS011;6516;35.028;32.372;2024-03-08T00:38:58;9.57;;;4.60;;
12896;SDS011;6516;35.028;32.372;2024-03-08T00:41:26;8.00;;;4.70;;
12896;SDS011;6516;35.028;32.372;2024-03-08T00:43:53;11.57;;;4.95;;
12896;SDS011;6516;35.028;32.372;2024-03-08T00:46:23;9.60;;;4.95;;
12896;SDS011;6516;35.028;32.372;2024-03-08T00:48:50;10.48;;;4.93;;
12896;SDS011;6516;35.028;32.372;2024-03-08T00:51:18;12.75;;;5.00;;
12896;SDS011;6516;35.028;32.372;2024-03-08T00:53:46;11.17;;;5.17;;
12896;SDS011;6516;35.028;32.372;2024-03-08T00:56:14;9.93;;;5.32;;
12896;SDS011;6516;35.028;32.372;2024-03-08T00:58:42;9.23;;;4.90;;
12896;SDS011;6516;35.028;32.372;2024-03-08T01:01:09;8.73;;;4.63;;
12896;SDS011;6516;35.028;32.372;2024-03-08T01:03:39;9.30;;;5.15;;
12896;SDS011;6516;35.028;32.372;2024-03-08T01:06:07;11.57;;;5.57;;
12896;SDS011;6516;35.028;32.372;2024-03-08T01:08:35;9.52;;;4.97;;
12896;SDS011;6516;35.028;32.372;2024-03-08T01:11:03;8.07;;;4.22;;
12896;SDS011;6516;35.028;32.372;2024-03-08T01:13:31;9.57;;;5.07;;
12896;SDS011;6516;35.028;32.372;2024-03-08T01:15:59;8.25;;;4.93;;
12896;SDS011;6516;35.028;32.372;2024-03-08T01:18:27;9.00;;;4.90;;
12896;SDS011;6516;35.028;32.372;2024-03-08T01:20:56;8.90;;;4.75;;
12896;SDS011;6516;35.028;32.372;2024-03-08T01:23:24;9.50;;;4.70;;
12896;SDS011;6516;35.028;32.372;2024-03-08T01:25:52;7.60;;;4.30;;
12896;SDS011;6516;35.028;32.372;2024-03-08T01:28:22;9.40;;;4.55;;
12896;SDS011;6516;35.028;32.372;2024-03-08T01:30:50;12.13;;;4.87;;
12896;SDS011;6516;35.028;32.372;2024-03-08T01:33:21;9.80;;;4.32;;
12896;SDS011;6516;35.028;32.372;2024-03-08T01:35:50;10.05;;;4.05;;
12896;SDS011;6516;35.028;32.372;2024-03-08T01:38:20;9.18;;;4.05;;
12896;SDS011;6516;35.028;32.372;2024-03-08T01:40:48;9.38;;;4.43;;
12896;SDS011;6516;35.028;32.372;2024-03-08T01:43:17;6.77;;;3.90;;
12896;SDS011;6516;35.028;32.372;2024-03-08T01:45:46;8.00;;;3.80;;
12896;SDS011;6516;35.028;32.372;2024-03-08T01:48:15;7.07;;;4.00;;
12896;SDS011;6516;35.028;32.372;2024-03-08T01:50:44;7.22;;;3.75;;
12896;SDS011;6516;35.028;32.372;2024-03-08T01:53:12;9.10;;;4.13;;
12896;SDS011;6516;35.028;32.372;2024-03-08T01:55:44;9.37;;;3.80;;
12896;SDS011;6516;35.028;32.372;2024-03-08T01:58:15;9.02;;;4.40;;
12896;SDS011;6516;35.028;32.372;2024-03-08T02:00:43;7.57;;;3.80;;
12896;SDS011;6516;35.028;32.372;2024-03-08T02:03:14;6.53;;;3.88;;
12896;SDS011;6516;35.028;32.372;2024-03-08T02:05:42;9.95;;;4.13;;
12896;SDS011;6516;35.028;32.372;2024-03-08T02:08:10;8.77;;;4.07;;
12896;SDS011;6516;35.028;32.372;2024-03-08T02:10:39;6.93;;;4.03;;
12896;SDS011;6516;35.028;32.372;2024-03-08T02:13:09;9.95;;;4.20;;
12896;SDS011;6516;35.028;32.372;2024-03-08T02:15:51;10.10;;;3.80;;
12896;SDS011;6516;35.028;32.372;2024-03-08T02:18:20;8.35;;;3.78;;
12896;SDS011;6516;35.028;32.372;2024-03-08T02:20:50;8.83;;;4.00;;
12896;SDS011;6516;35.028;32.372;2024-03-08T02:23:18;10.73;;;3.80;;
12896;SDS011;6516;35.028;32.372;2024-03-08T02:25:46;12.07;;;5.10;;
12896;SDS011;6516;35.028;32.372;2024-03-08T02:28:14;8.20;;;3.60;;
12896;SDS011;6516;35.028;32.372;2024-03-08T02:30:44;9.88;;;4.20;;
12896;SDS011;6516;35.028;32.372;2024-03-08T02:33:13;11.33;;;4.60;;
12896;SDS011;6516;35.028;32.372;2024-03-08T02:35:43;9.40;;;4.28;;
12896;SDS011;6516;35.028;32.372;2024-03-08T02:38:13;10.35;;;4.22;;
12896;SDS011;6516;35.028;32.372;2024-03-08T02:40:41;9.85;;;4.15;;
12896;SDS011;6516;35.028;32.372;2024-03-08T02:43:09;11.45;;;3.92;;
12896;SDS011;6516;35.028;32.372;2024-03-08T02:45:37;9.57;;;4.60;;
12896;SDS011;6516;35.028;32.372;2024-03-08T02:48:07;10.55;;;4.10;;
12896;SDS011;6516;35.028;32.372;2024-03-08T02:50:35;8.20;;;3.67;;
12896;SDS011;6516;35.028;32.372;2024-03-08T02:53:04;11.35;;;4.40;;
12896;SDS011;6516;35.028;32.372;2024-03-08T02:55:34;11.30;;;4.70;;
12896;SDS011;6516;35.028;32.372;2024-03-08T02:58:02;11.13;;;4.37;;
12896;SDS011;6516;35.028;32.372;2024-03-08T03:00:33;10.52;;;4.57;;
12896;SDS011;6516;35.028;32.372;2024-03-08T03:03:00;8.98;;;4.30;;
12896;SDS011;6516;35.028;32.372;2024-03-08T03:05:29;9.77;;;4.72;;
12896;SDS011;6516;35.028;32.372;2024-03-08T03:07:57;12.98;;;4.60;;
12896;SDS011;6516;35.028;32.372;2024-03-08T03:10:25;10.33;;;4.33;;
12896;SDS011;6516;35.028;32.372;2024-03-08T03:12:54;8.07;;;4.28;;
12896;SDS011;6516;35.028;32.372;2024-03-08T03:15:22;10.38;;;4.18;;
12896;SDS011;6516;35.028;32.372;2024-03-08T03:17:50;10.90;;;5.03;;
12896;SDS011;6516;35.028;32.372;2024-03-08T03:20:18;10.10;;;4.90;;
12896;SDS011;6516;35.028;32.372;2024-03-08T03:22:52;12.27;;;4.77;;
12896;SDS011;6516;35.028;32.372;2024-03-08T03:25:22;12.15;;;4.90;;
12896;SDS011;6516;35.028;32.372;2024-03-08T03:27:51;10.90;;;4.72;;
12896;SDS011;6516;35.028;32.372;2024-03-08T03:30:21;11.15;;;4.80;;
12896;SDS011;6516;35.028;32.372;2024-03-08T03:32:51;9.98;;;4.72;;
12896;SDS011;6516;35.028;32.372;2024-03-08T03:35:22;10.93;;;4.70;;
12896;SDS011;6516;35.028;32.372;2024-03-08T03:37:50;10.10;;;4.47;;
12896;SDS011;6516;35.028;32.372;2024-03-08T03:40:27;9.90;;;5.13;;
12896;SDS011;6516;35.028;32.372;2024-03-08T03:42:56;8.82;;;4.63;;
12896;SDS011;6516;35.028;32.372;2024-03-08T03:45:24;11.70;;;5.03;;
12896;SDS011;6516;35.028;32.372;2024-03-08T03:47:52;8.57;;;4.77;;
12896;SDS011;6516;35.028;32.372;2024-03-08T03:50:20;12.18;;;5.18;;
12896;SDS011;6516;35.028;32.372;2024-03-08T03:52:48;9.95;;;5.22;;
12896;SDS011;6516;35.028;32.372;2024-03-08T03:55:16;10.80;;;4.65;;
12896;SDS011;6516;35.028;32.372;2024-03-08T03:57:45;10.63;;;5.22;;
12896;SDS011;6516;35.028;32.372;2024-03-08T04:00:15;11.10;;;5.03;;
12896;SDS011;6516;35.028;32.372;2024-03-08T04:02:43;11.63;;;4.72;;
12896;SDS011;6516;35.028;32.372;2024-03-08T04:05:12;9.30;;;4.60;;
12896;SDS011;6516;35.028;32.372;2024-03-08T04:07:40;11.38;;;5.15;;
12896;SDS011;6516;35.028;32.372;2024-03-08T04:10:09;10.60;;;4.78;;
12896;SDS011;6516;35.028;32.372;2024-03-08T04:12:38;11.07;;;5.27;;
12896;SDS011;6516;35.028;32.372;2024-03-08T04:15:06;10.13;;;4.95;;
12896;SDS011;6516;35.028;32.372;2024-03-08T04:17:37;9.88;;;4.70;;
12896;SDS011;6516;35.028;32.372;2024-03-08T04:20:06;9.98;;;4.60;;
12896;SDS011;6516;35.028;32.372;2024-03-08T04:22:35;12.00;;;5.40;;
12896;SDS011;6516;35.028;32.372;2024-03-08T04:25:04;9.43;;;4.53;;
12896;SDS011;6516;35.028;32.372;2024-03-08T04:27:35;10.20;;;4.97;;
12896;SDS011;6516;35.028;32.372;2024-03-08T04:30:03;10.27;;;5.28;;
12896;SDS011;6516;35.028;32.372;2024-03-08T04:32:32;10.52;;;5.22;;
12896;SDS011;6516;35.028;32.372;2024-03-08T04:35:02;10.77;;;5.10;;
12896;SDS011;6516;35.028;32.372;2024-03-08T04:37:30;8.10;;;4.73;;
12896;SDS011;6516;35.028;32.372;2024-03-08T04:39:58;12.00;;;4.97;;
12896;SDS011;6516;35.028;32.372;2024-03-08T04:42:26;10.38;;;5.40;;
12896;SDS011;6516;35.028;32.372;2024-03-08T04:44:55;11.07;;;4.80;;
12896;SDS011;6516;35.028;32.372;2024-03-08T04:47:23;11.45;;;5.07;;
12896;SDS011;6516;35.028;32.372;2024-03-08T04:49:51;13.13;;;5.40;;
12896;SDS011;6516;35.028;32.372;2024-03-08T04:52:21;10.73;;;4.82;;
12896;SDS011;6516;35.028;32.372;2024-03-08T04:54:49;10.45;;;4.90;;
12896;SDS011;6516;35.028;32.372;2024-03-08T04:57:17;13.25;;;5.68;;
12896;SDS011;6516;35.028;32.372;2024-03-08T04:59:44;14.90;;;5.32;;
12896;SDS011;6516;35.028;32.372;2024-03-08T05:02:12;8.17;;;4.90;;
12896;SDS011;6516;35.028;32.372;2024-03-08T05:04:40;13.77;;;5.15;;
12896;SDS011;6516;35.028;32.372;2024-03-08T05:07:08;10.90;;;5.53;;
12896;SDS011;6516;35.028;32.372;2024-03-08T05:09:37;11.18;;;4.78;;
12896;SDS011;6516;35.028;32.372;2024-03-08T05:12:06;9.68;;;4.80;;
12896;SDS011;6516;35.028;32.372;2024-03-08T05:14:34;10.40;;;5.00;;
12896;SDS011;6516;35.028;32.372;2024-03-08T05:17:02;8.98;;;4.75;;
12896;SDS011;6516;35.028;32.372;2024-03-08T05:19:32;10.65;;;4.93;;
12896;SDS011;6516;35.028;32.372;2024-03-08T05:21:59;8.82;;;4.75;;
12896;SDS011;6516;35.028;32.372;2024-03-08T05:24:28;8.77;;;4.63;;
12896;SDS011;6516;35.028;32.372;2024-03-08T05:26:57;8.67;;;5.07;;
12896;SDS011;6516;35.028;32.372;2024-03-08T05:29:25;10.10;;;4.60;;
12896;SDS011;6516;35.028;32.372;2024-03-08T05:31:54;9.75;;;4.63;;
12896;SDS011;6516;35.028;32.372;2024-03-08T05:34:23;9.25;;;4.43;;
12896;SDS011;6516;35.028;32.372;2024-03-08T05:36:51;9.68;;;4.20;;
12896;SDS011;6516;35.028;32.372;2024-03-08T05:39:19;6.90;;;3.90;;
12896;SDS011;6516;35.028;32.372;2024-03-08T05:41:47;7.95;;;3.92;;
12896;SDS011;6516;35.028;32.372;2024-03-08T05:44:17;8.90;;;4.57;;
12896;SDS011;6516;35.028;32.372;2024-03-08T05:46:44;8.90;;;4.30;;
12896;SDS011;6516;35.028;32.372;2024-03-08T05:49:12;8.32;;;3.70;;
12896;SDS011;6516;35.028;32.372;2024-03-08T05:51:40;7.33;;;4.00;;
12896;SDS011;6516;35.028;32.372;2024-03-08T05:54:09;8.43;;;3.72;;
12896;SDS011;6516;35.028;32.372;2024-03-08T05:56:38;7.93;;;3.95;;
12896;SDS011;6516;35.028;32.372;2024-03-08T05:59:07;8.95;;;3.45;;
12896;SDS011;6516;35.028;32.372;2024-03-08T06:01:37;7.78;;;3.55;;
12896;SDS011;6516;35.028;32.372;2024-03-08T06:04:06;8.67;;;3.50;;
12896;SDS011;6516;35.028;32.372;2024-03-08T06:06:34;7.55;;;3.40;;
12896;SDS011;6516;35.028;32.372;2024-03-08T06:09:03;8.05;;;3.85;;
12896;SDS011;6516;35.028;32.372;2024-03-08T06:11:36;8.15;;;3.80;;
12896;SDS011;6516;35.028;32.372;2024-03-08T06:14:03;6.93;;;3.42;;
12896;SDS011;6516;35.028;32.372;2024-03-08T06:16:31;7.30;;;3.40;;
12896;SDS011;6516;35.028;32.372;2024-03-08T06:19:00;8.20;;;3.55;;
12896;SDS011;6516;35.028;32.372;2024-03-08T06:21:28;11.82;;;3.47;;
12896;SDS011;6516;35.028;32.372;2024-03-08T06:23:57;10.50;;;3.90;;
12896;SDS011;6516;35.028;32.372;2024-03-08T06:26:25;7.60;;;3.60;;
12896;SDS011;6516;35.028;32.372;2024-03-08T06:28:54;10.00;;;3.43;;
12896;SDS011;6516;35.028;32.372;2024-03-08T06:31:22;10.60;;;3.40;;
12896;SDS011;6516;35.028;32.372;2024-03-08T06:33:50;7.60;;;3.55;;
12896;SDS011;6516;35.028;32.372;2024-03-08T06:36:21;8.73;;;3.72;;
12896;SDS011;6516;35.028;32.372;2024-03-08T06:38:48;8.52;;;3.28;;
12896;SDS011;6516;35.028;32.372;2024-03-08T06:41:16;9.03;;;3.30;;
12896;SDS011;6516;35.028;32.372;2024-03-08T06:43:44;9.05;;;3.20;;
12896;SDS011;6516;35.028;32.372;2024-03-08T06:46:14;9.60;;;3.78;;
12896;SDS011;6516;35.028;32.372;2024-03-08T06:48:43;7.53;;;3.35;;
12896;SDS011;6516;35.028;32.372;2024-03-08T06:51:11;10.15;;;3.28;;
12896;SDS011;6516;35.028;32.372;2024-03-08T06:53:41;8.20;;;2.83;;
12896;SDS011;6516;35.028;32.372;2024-03-08T06:56:08;11.43;;;3.60;;
12896;SDS011;6516;35.028;32.372;2024-03-08T06:58:36;9.52;;;3.22;;
12896;SDS011;6516;35.028;32.372;2024-03-08T07:01:04;7.00;;;3.30;;
12896;SDS011;6516;35.028;32.372;2024-03-08T07:03:32;7.28;;;3.00;;
12896;SDS011;6516;35.028;32.372;2024-03-08T07:06:00;8.90;;;2.63;;
12896;SDS011;6516;35.028;32.372;2024-03-08T07:08:32;6.22;;;2.97;;
12896;SDS011;6516;35.028;32.372;2024-03-08T07:11:02;9.73;;;3.30;;
12896;SDS011;6516;35.028;32.372;2024-03-08T07:13:32;9.68;;;3.20;;
12896;SDS011;6516;35.028;32.372;2024-03-08T07:16:00;10.23;;;3.20;;
12896;SDS011;6516;35.028;32.372;2024-03-08T07:18:28;7.63;;;3.00;;
12896;SDS011;6516;35.028;32.372;2024-03-08T07:20:56;8.65;;;2.92;;
12896;SDS011;6516;35.028;32.372;2024-03-08T07:23:24;8.38;;;2.78;;
12896;SDS011;6516;35.028;32.372;2024-03-08T07:26:10;11.27;;;4.03;;
12896;SDS011;6516;35.028;32.372;2024-03-08T07:28:38;10.65;;;2.80;;
12896;SDS011;6516;35.028;32.372;2024-03-08T07:31:06;8.57;;;2.73;;
12896;SDS011;6516;35.028;32.372;2024-03-08T07:33:42;8.30;;;2.80;;
12896;SDS011;6516;35.028;32.372;2024-03-08T07:36:10;9.40;;;2.72;;
12896;SDS011;6516;35.028;32.372;2024-03-08T07:38:40;9.85;;;3.00;;
12896;SDS011;6516;35.028;32.372;2024-03-08T07:41:10;7.55;;;3.08;;
12896;SDS011;6516;35.028;32.372;2024-03-08T07:43:38;7.97;;;3.17;;
12896;SDS011;6516;35.028;32.372;2024-03-08T07:46:05;8.88;;;2.90;;
12896;SDS011;6516;35.028;32.372;2024-03-08T07:48:35;8.02;;;2.90;;
12896;SDS011;6516;35.028;32.372;2024-03-08T07:51:05;7.10;;;2.72;;
12896;SDS011;6516;35.028;32.372;2024-03-08T07:53:34;7.57;;;2.58;;
12896;SDS011;6516;35.028;32.372;2024-03-08T07:56:03;8.97;;;2.93;;
12896;SDS011;6516;35.028;32.372;2024-03-08T07:58:33;7.55;;;2.70;;
12896;SDS011;6516;35.028;32.372;2024-03-08T08:01:01;8.50;;;2.50;;
12896;SDS011;6516;35.028;32.372;2024-03-08T08:03:29;5.80;;;2.40;;
12896;SDS011;6516;35.028;32.372;2024-03-08T08:05:57;7.63;;;2.58;;
12896;SDS011;6516;35.028;32.372;2024-03-08T08:08:25;8.10;;;2.77;;
12896;SDS011;6516;35.028;32.372;2024-03-08T08:10:53;7.60;;;2.40;;
12896;SDS011;6516;35.028;32.372;2024-03-08T08:13:20;7.85;;;2.75;;
12896;SDS011;6516;35.028;32.372;2024-03-08T08:15:50;8.85;;;2.63;;
12896;SDS011;6516;35.028;32.372;2024-03-08T08:18:18;8.85;;;2.50;;
12896;SDS011;6516;35.028;32.372;2024-03-08T08:20:50;6.03;;;2.50;;
12896;SDS011;6516;35.028;32.372;2024-03-08T08:23:17;9.18;;;2.40;;
12896;SDS011;6516;35.028;32.372;2024-03-08T08:25:46;10.30;;;2.83;;
12896;SDS011;6516;35.028;32.372;2024-03-08T08:28:15;10.02;;;2.42;;
12896;SDS011;6516;35.028;32.372;2024-03-08T08:30:44;7.40;;;2.40;;
12896;SDS011;6516;35.028;32.372;2024-03-08T08:33:13;6.30;;;2.20;;
12896;SDS011;6516;35.028;32.372;2024-03-08T08:35:41;7.03;;;2.30;;
12896;SDS011;6516;35.028;32.372;2024-03-08T08:38:09;8.70;;;2.58;;
12896;SDS011;6516;35.028;32.372;2024-03-08T08:40:38;7.40;;;2.60;;
12896;SDS011;6516;35.028;32.372;2024-03-08T08:43:06;8.05;;;2.65;;
12896;SDS011;6516;35.028;32.372;2024-03-08T08:45:34;5.90;;;2.30;;
12896;SDS011;6516;35.028;32.372;2024-03-08T08:48:04;9.40;;;2.40;;
12896;SDS011;6516;35.028;32.372;2024-03-08T08:50:34;6.35;;;2.70;;
12896;SDS011;6516;35.028;32.372;2024-03-08T08:53:03;7.68;;;2.70;;
12896;SDS011;6516;35.028;32.372;2024-03-08T08:55:32;6.78;;;2.45;;
12896;SDS011;6516;35.028;32.372;2024-03-08T08:58:01;8.17;;;2.50;;
12896;SDS011;6516;35.028;32.372;2024-03-08T09:00:29;6.47;;;2.35;;
12896;SDS011;6516;35.028;32.372;2024-03-08T09:02:58;5.95;;;2.40;;
12896;SDS011;6516;35.028;32.372;2024-03-08T09:05:27;8.25;;;2.55;;
12896;SDS011;6516;35.028;32.372;2024-03-08T09:07:56;8.70;;;2.50;;
12896;SDS011;6516;35.028;32.372;2024-03-08T09:10:25;6.80;;;2.40;;
12896;SDS011;6516;35.028;32.372;2024-03-08T09:12:53;7.47;;;2.50;;
12896;SDS011;6516;35.028;32.372;2024-03-08T09:15:21;5.95;;;2.50;;
12896;SDS011;6516;35.028;32.372;2024-03-08T09:17:49;7.70;;;2.50;;
12896;SDS011;6516;35.028;32.372;2024-03-08T09:20:17;6.50;;;2.50;;
12896;SDS011;6516;35.028;32.372;2024-03-08T09:22:46;5.53;;;2.13;;
12896;SDS011;6516;35.028;32.372;2024-03-08T09:25:15;6.28;;;2.63;;
12896;SDS011;6516;35.028;32.372;2024-03-08T09:27:43;8.00;;;2.63;;
12896;SDS011;6516;35.028;32.372;2024-03-08T09:30:11;5.88;;;2.40;;
12896;SDS011;6516;35.028;32.372;2024-03-08T09:32:40;5.53;;;2.30;;
12896;SDS011;6516;35.028;32.372;2024-03-08T09:35:09;6.87;;;2.53;;
12896;SDS011;6516;35.028;32.372;2024-03-08T09:37:37;7.40;;;2.38;;
12896;SDS011;6516;35.028;32.372;2024-03-08T09:40:05;6.32;;;2.40;;
12896;SDS011;6516;35.028;32.372;2024-03-08T09:42:37;7.15;;;2.60;;
12896;SDS011;6516;35.028;32.372;2024-03-08T09:45:05;9.55;;;2.50;;
12896;SDS011;6516;35.028;32.372;2024-03-08T09:47:40;8.00;;;2.23;;
12896;SDS011;6516;35.028;32.372;2024-03-08T09:50:10;6.07;;;2.53;;
12896;SDS011;6516;35.028;32.372;2024-03-08T09:52:39;7.95;;;2.63;;
12896;SDS011;6516;35.028;32.372;2024-03-08T09:55:09;6.65;;;2.22;;
12896;SDS011;6516;35.028;32.372;2024-03-08T09:57:39;10.57;;;3.13;;
12896;SDS011;6516;35.028;32.372;2024-03-08T10:00:08;6.67;;;2.67;;
12896;SDS011;6516;35.028;32.372;2024-03-08T10:02:49;7.70;;;2.45;;
12896;SDS011;6516;35.028;32.372;2024-03-08T10:05:19;8.73;;;2.60;;
12896;SDS011;6516;35.028;32.372;2024-03-08T10:07:50;7.88;;;2.40;;
12896;SDS011;6516;35.028;32.372;2024-03-08T10:10:18;8.32;;;2.50;;
12896;SDS011;6516;35.028;32.372;2024-03-08T10:12:48;6.20;;;2.63;;
12896;SDS011;6516;35.028;32.372;2024-03-08T10:15:16;7.57;;;2.30;;
12896;SDS011;6516;35.028;32.372;2024-03-08T10:17:45;7.70;;;2.45;;
12896;SDS011;6516;35.028;32.372;2024-03-08T10:20:14;6.72;;;2.40;;
12896;SDS011;6516;35.028;32.372;2024-03-08T10:22:43;8.88;;;2.40;;
12896;SDS011;6516;35.028;32.372;2024-03-08T10:25:12;5.43;;;2.10;;
12896;SDS011;6516;35.028;32.372;2024-03-08T10:27:40;7.72;;;2.40;;
12896;SDS011;6516;35.028;32.372;2024-03-08T10:30:10;7.28;;;2.40;;
12896;SDS011;6516;35.028;32.372;2024-03-08T10:32:45;7.43;;;2.55;;
12896;SDS011;6516;35.028;32.372;2024-03-08T10:35:13;6.72;;;2.75;;
12896;SDS011;6516;35.028;32.372;2024-03-08T10:37:44;5.93;;;2.47;;
12896;SDS011;6516;35.028;32.372;2024-03-08T10:40:16;7.25;;;2.50;;
12896;SDS011;6516;35.028;32.372;2024-03-08T10:42:51;7.68;;;2.50;;
12896;SDS011;6516;35.028;32.372;2024-03-08T10:45:26;8.77;;;2.35;;
12896;SDS011;6516;35.028;32.372;2024-03-08T10:48:03;7.03;;;2.50;;
12896;SDS011;6516;35.028;32.372;2024-03-08T10:50:43;5.87;;;2.17;;
12896;SDS011;6516;35.028;32.372;2024-03-08T10:53:12;7.72;;;2.42;;
12896;SDS011;6516;35.028;32.372;2024-03-08T10:55:41;5.53;;;2.20;;
12896;SDS011;6516;35.028;32.372;2024-03-08T10:58:11;6.93;;;2.50;;
12896;SDS011;6516;35.028;32.372;2024-03-08T11:00:40;6.10;;;2.20;;
12896;SDS011;6516;35.028;32.372;2024-03-08T11:03:09;6.33;;;2.30;;
12896;SDS011;6516;35.028;32.372;2024-03-08T11:06:14;7.40;;;2.70;;
12896;SDS011;6516;35.028;32.372;2024-03-08T11:08:48;6.32;;;2.15;;
12896;SDS011;6516;35.028;32.372;2024-03-08T11:11:23;5.50;;;2.30;;
12896;SDS011;6516;35.028;32.372;2024-03-08T11:13:55;5.45;;;2.40;;
12896;SDS011;6516;35.028;32.372;2024-03-08T11:16:40;7.47;;;2.30;;
12896;SDS011;6516;35.028;32.372;2024-03-08T11:19:24;7.82;;;2.20;;
12896;SDS011;6516;35.028;32.372;2024-03-08T11:21:57;6.15;;;2.63;;
12896;SDS011;6516;35.028;32.372;2024-03-08T11:24:36;6.75;;;2.25;;
12896;SDS011;6516;35.028;32.372;2024-03-08T11:27:07;7.15;;;2.38;;
12896;SDS011;6516;35.028;32.372;2024-03-08T11:29:37;7.27;;;2.37;;
12896;SDS011;6516;35.028;32.372;2024-03-08T11:32:11;7.78;;;2.20;;
12896;SDS011;6516;35.028;32.372;2024-03-08T11:34:42;6.00;;;2.47;;
12896;SDS011;6516;35.028;32.372;2024-03-08T11:37:15;8.27;;;2.38;;
12896;SDS011;6516;35.028;32.372;2024-03-08T11:39:46;6.57;;;2.05;;
12896;SDS011;6516;35.028;32.372;2024-03-08T11:42:15;7.20;;;2.43;;
12896;SDS011;6516;35.028;32.372;2024-03-08T11:44:43;7.65;;;2.30;;
12896;SDS011;6516;35.028;32.372;2024-03-08T11:47:13;9.00;;;3.60;;
12896;SDS011;6516;35.028;32.372;2024-03-08T11:49:41;8.13;;;2.60;;
12896;SDS011;6516;35.028;32.372;2024-03-08T11:52:12;6.30;;;2.22;;
12896;SDS011;6516;35.028;32.372;2024-03-08T11:54:41;6.27;;;2.50;;
12896;SDS011;6516;35.028;32.372;2024-03-08T11:57:10;5.75;;;2.20;;
12896;SDS011;6516;35.028;32.372;2024-03-08T11:59:39;5.90;;;2.40;;
12896;SDS011;6516;35.028;32.372;2024-03-08T12:02:09;7.10;;;2.33;;
12896;SDS011;6516;35.028;32.372;2024-03-08T12:04:38;5.38;;;2.42;;
12896;SDS011;6516;35.028;32.372;2024-03-08T12:07:09;6.30;;;2.40;;
12896;SDS011;6516;35.028;32.372;2024-03-08T12:09:39;6.10;;;2.10;;
12896;SDS011;6516;35.028;32.372;2024-03-08T12:12:11;7.70;;;2.20;;
12896;SDS011;6516;35.028;32.372;2024-03-08T12:14:42;9.52;;;2.50;;
12896;SDS011;6516;35.028;32.372;2024-03-08T12:17:10;6.25;;;2.47;;
12896;SDS011;6516;35.028;32.372;2024-03-08T12:19:40;5.10;;;2.30;;
12896;SDS011;6516;35.028;32.372;2024-03-08T12:22:14;7.03;;;2.50;;
12896;SDS011;6516;35.028;32.372;2024-03-08T12:24:43;19.83;;;9.52;;
12896;SDS011;6516;35.028;32.372;2024-03-08T12:27:21;11.00;;;4.75;;
12896;SDS011;6516;35.028;32.372;2024-03-08T12:29:49;7.45;;;2.97;;
12896;SDS011;6516;35.028;32.372;2024-03-08T12:32:17;5.07;;;2.20;;
12896;SDS011;6516;35.028;32.372;2024-03-08T12:34:52;12.40;;;5.55;;
12896;SDS011;6516;35.028;32.372;2024-03-08T12:37:20;7.35;;;3.05;;
12896;SDS011;6516;35.028;32.372;2024-03-08T12:39:48;6.30;;;2.58;;
12896;SDS011;6516;35.028;32.372;2024-03-08T12:42:16;7.35;;;2.45;;
12896;SDS011;6516;35.028;32.372;2024-03-08T12:44:44;6.37;;;2.50;;
12896;SDS011;6516;35.028;32.372;2024-03-08T12:47:12;6.47;;;2.50;;
12896;SDS011;6516;35.028;32.372;2024-03-08T12:49:40;8.57;;;2.42;;
12896;SDS011;6516;35.028;32.372;2024-03-08T12:52:09;7.03;;;2.30;;
12896;SDS011;6516;35.028;32.372;2024-03-08T12:54:37;5.57;;;2.30;;
12896;SDS011;6516;35.028;32.372;2024-03-08T12:57:05;8.00;;;2.20;;
12896;SDS011;6516;35.028;32.372;2024-03-08T12:59:33;5.97;;;2.20;;
12896;SDS011;6516;35.028;32.372;2024-03-08T13:02:01;5.13;;;2.28;;
12896;SDS011;6516;35.028;32.372;2024-03-08T13:04:31;7.55;;;2.28;;
12896;SDS011;6516;35.028;32.372;2024-03-08T13:06:58;5.30;;;2.40;;
12896;SDS011;6516;35.028;32.372;2024-03-08T13:09:28;6.70;;;2.60;;
12896;SDS011;6516;35.028;32.372;2024-03-08T13:11:57;6.57;;;2.70;;
12896;SDS011;6516;35.028;32.372;2024-03-08T13:14:26;7.53;;;2.70;;
12896;SDS011;6516;35.028;32.372;2024-03-08T13:16:57;6.50;;;2.20;;
12896;SDS011;6516;35.028;32.372;2024-03-08T13:19:25;6.80;;;2.40;;
12896;SDS011;6516;35.028;32.372;2024-03-08T13:21:53;5.50;;;1.90;;
12896;SDS011;6516;35.028;32.372;2024-03-08T13:24:21;7.45;;;2.40;;
12896;SDS011;6516;35.028;32.372;2024-03-08T13:26:51;7.38;;;2.50;;
12896;SDS011;6516;35.028;32.372;2024-03-08T13:29:19;6.07;;;2.20;;
12896;SDS011;6516;35.028;32.372;2024-03-08T13:31:48;7.13;;;2.20;;
12896;SDS011;6516;35.028;32.372;2024-03-08T13:34:17;7.73;;;2.00;;
12896;SDS011;6516;35.028;32.372;2024-03-08T13:36:53;13.05;;;2.53;;
12896;SDS011;6516;35.028;32.372;2024-03-08T13:39:25;14.38;;;2.75;;
12896;SDS011;6516;35.028;32.372;2024-03-08T13:41:56;11.68;;;2.40;;
12896;SDS011;6516;35.028;32.372;2024-03-08T13:44:23;13.70;;;2.50;;
12896;SDS011;6516;35.028;32.372;2024-03-08T13:46:53;10.53;;;2.50;;
12896;SDS011;6516;35.028;32.372;2024-03-08T13:49:23;6.82;;;2.90;;
12896;SDS011;6516;35.028;32.372;2024-03-08T13:51:51;6.90;;;2.70;;
12896;SDS011;6516;35.028;32.372;2024-03-08T13:54:20;11.82;;;3.35;;
12896;SDS011;6516;35.028;32.372;2024-03-08T13:56:48;8.82;;;3.03;;
12896;SDS011;6516;35.028;32.372;2024-03-08T13:59:18;7.57;;;2.70;;
12896;SDS011;6516;35.028;32.372;2024-03-08T14:01:47;10.52;;;3.60;;
12896;SDS011;6516;35.028;32.372;2024-03-08T14:04:15;6.75;;;2.47;;
12896;SDS011;6516;35.028;32.372;2024-03-08T14:06:43;8.65;;;3.10;;
12896;SDS011;6516;35.028;32.372;2024-03-08T14:09:11;7.10;;;2.38;;
12896;SDS011;6516;35.028;32.372;2024-03-08T14:11:42;6.40;;;2.50;;
12896;SDS011;6516;35.028;32.372;2024-03-08T14:14:10;6.80;;;2.70;;
12896;SDS011;6516;35.028;32.372;2024-03-08T14:16:40;7.78;;;2.95;;
12896;SDS011;6516;35.028;32.372;2024-03-08T14:19:08;6.10;;;2.30;;
12896;SDS011;6516;35.028;32.372;2024-03-08T14:21:36;9.18;;;2.97;;
12896;SDS011;6516;35.028;32.372;2024-03-08T14:24:05;9.60;;;2.40;;
12896;SDS011;6516;35.028;32.372;2024-03-08T14:26:33;9.70;;;2.42;;
12896;SDS011;6516;35.028;32.372;2024-03-08T14:29:03;7.63;;;2.47;;
12896;SDS011;6516;35.028;32.372;2024-03-08T14:31:32;6.18;;;1.90;;
12896;SDS011;6516;35.028;32.372;2024-03-08T14:34:02;5.18;;;1.65;;
12896;SDS011;6516;35.028;32.372;2024-03-08T14:36:30;4.37;;;1.33;;
12896;SDS011;6516;35.028;32.372;2024-03-08T14:38:58;7.80;;;1.60;;
12896;SDS011;6516;35.028;32.372;2024-03-08T14:41:26;7.25;;;1.52;;
12896;SDS011;6516;35.028;32.372;2024-03-08T14:43:54;6.05;;;1.30;;
12896;SDS011;6516;35.028;32.372;2024-03-08T14:46:22;6.18;;;1.48;;
12896;SDS011;6516;35.028;32.372;2024-03-08T14:48:50;9.23;;;1.90;;
12896;SDS011;6516;35.028;32.372;2024-03-08T14:51:19;5.88;;;1.60;;
12896;SDS011;6516;35.028;32.372;2024-03-08T14:53:51;5.35;;;1.40;;
12896;SDS011;6516;35.028;32.372;2024-03-08T14:56:19;5.00;;;1.45;;
12896;SDS011;6516;35.028;32.372;2024-03-08T14:58:48;5.88;;;1.50;;